createdAt,value
2019-04-29T00:00:46.565Z,7.60
2019-04-29T00:03:16.947Z,7.60
2019-04-29T00:05:47.290Z,7.60
2019-04-29T00:08:17.619Z,7.50
2019-04-29T00:10:47.954Z,7.50
2019-04-29T00:13:18.322Z,7.50
2019-04-29T00:16:13.397Z,7.40
2019-04-29T00:19:02.940Z,7.40
2019-04-29T00:21:33.298Z,7.40
2019-04-29T00:24:04.412Z,7.40
2019-04-29T00:26:35.333Z,7.40
2019-04-29T00:29:05.717Z,7.50
2019-04-29T00:31:36.035Z,7.40
2019-04-29T00:34:06.376Z,7.30
2019-04-29T00:36:43.455Z,7.30
2019-04-29T00:39:38.447Z,7.30
2019-04-29T00:42:26.285Z,7.20
2019-04-29T00:44:56.680Z,7.20
2019-04-29T00:47:26.984Z,7.20
2019-04-29T00:49:57.321Z,7.10
2019-04-29T00:52:27.620Z,7.10
2019-04-29T00:55:03.830Z,7.10
2019-04-29T00:57:34.105Z,7.00
2019-04-29T01:00:05.114Z,7.10
2019-04-29T01:02:35.443Z,7.00
2019-04-29T01:05:06.268Z,6.90
2019-04-29T01:07:36.585Z,6.90
2019-04-29T01:10:07.883Z,6.90
2019-04-29T01:12:38.284Z,6.80
2019-04-29T01:15:08.815Z,6.80
2019-04-29T01:17:39.140Z,6.80
2019-04-29T01:20:10.870Z,6.80
2019-04-29T01:22:42.846Z,6.80
2019-04-29T01:25:13.304Z,6.80
2019-04-29T01:27:55.838Z,6.80
2019-04-29T01:31:05.847Z,6.80
2019-04-29T01:33:36.171Z,6.80
2019-04-29T01:36:31.547Z,6.80
2019-04-29T01:39:04.288Z,6.70
2019-04-29T01:41:41.156Z,6.70
2019-04-29T01:44:11.573Z,6.70
2019-04-29T01:46:41.875Z,6.70
2019-04-29T01:49:12.237Z,6.60
2019-04-29T01:51:42.540Z,6.60
2019-04-29T01:54:12.852Z,6.60
2019-04-29T01:56:43.179Z,6.50
2019-04-29T01:59:13.505Z,6.50
2019-04-29T02:01:43.814Z,6.50
2019-04-29T02:04:14.136Z,6.50
2019-04-29T02:06:44.458Z,6.40
2019-04-29T02:09:26.221Z,6.40
2019-04-29T02:11:56.534Z,6.40
2019-04-29T02:14:26.843Z,6.40
2019-04-29T02:16:57.174Z,6.40
2019-04-29T02:19:27.487Z,6.40
2019-04-29T02:22:22.208Z,6.40
2019-04-29T02:24:57.164Z,6.40
2019-04-29T02:27:27.496Z,6.40
2019-04-29T02:29:57.834Z,6.30
2019-04-29T02:32:28.140Z,6.40
2019-04-29T02:34:58.489Z,6.30
2019-04-29T02:37:33.326Z,6.30
2019-04-29T02:40:10.230Z,6.30
2019-04-29T02:43:11.720Z,6.30
2019-04-29T02:45:42.061Z,6.20
2019-04-29T02:48:12.363Z,6.20
2019-04-29T02:50:42.687Z,6.20
2019-04-29T02:53:13.938Z,6.20
2019-04-29T02:55:48.855Z,6.20
2019-04-29T02:58:28.253Z,6.20
2019-04-29T03:01:17.491Z,6.10
2019-04-29T03:04:04.077Z,6.10
2019-04-29T03:06:34.364Z,6.00
2019-04-29T03:09:06.457Z,6.00
2019-04-29T03:11:36.815Z,5.90
2019-04-29T03:14:07.125Z,5.90
2019-04-29T03:16:37.417Z,5.90
2019-04-29T03:19:12.940Z,5.90
2019-04-29T03:21:49.950Z,5.90
2019-04-29T03:24:20.299Z,5.90
2019-04-29T03:26:50.635Z,5.80
2019-04-29T03:29:23.992Z,5.80
2019-04-29T03:31:59.151Z,5.80
2019-04-29T03:34:29.573Z,5.80
2019-04-29T03:37:00.031Z,5.80
2019-04-29T03:39:30.437Z,5.80
2019-04-29T03:42:00.772Z,5.80
2019-04-29T03:44:31.184Z,5.70
2019-04-29T03:47:01.505Z,5.70
2019-04-29T03:49:31.828Z,5.60
2019-04-29T03:52:02.200Z,5.60
2019-04-29T03:54:32.597Z,5.60
2019-04-29T03:57:03.106Z,5.60
2019-04-29T03:59:33.445Z,5.50
2019-04-29T04:02:14.245Z,5.60
2019-04-29T04:05:01.945Z,5.60
2019-04-29T04:07:47.044Z,5.50
2019-04-29T04:10:17.365Z,5.50
2019-04-29T04:12:47.683Z,5.50
2019-04-29T04:15:18.089Z,5.50
2019-04-29T04:18:16.664Z,5.50
2019-04-29T04:20:47.271Z,5.50
2019-04-29T04:23:17.557Z,5.50
2019-04-29T04:25:47.897Z,5.50
2019-04-29T04:28:18.259Z,5.40
2019-04-29T04:30:48.561Z,5.40
2019-04-29T04:33:18.886Z,5.40
2019-04-29T04:35:49.238Z,5.40
2019-04-29T04:38:19.521Z,5.40
2019-04-29T04:40:59.538Z,5.40
2019-04-29T04:43:29.859Z,5.40
2019-04-29T04:46:00.151Z,5.40
2019-04-29T04:48:30.465Z,5.40
2019-04-29T04:51:00.765Z,5.40
2019-04-29T04:53:31.182Z,5.40
2019-04-29T04:56:02.026Z,5.40
2019-04-29T04:58:32.434Z,5.40
2019-04-29T05:01:02.760Z,5.40
2019-04-29T05:03:33.128Z,5.40
2019-04-29T05:06:03.432Z,5.40
2019-04-29T05:08:33.761Z,5.40
2019-04-29T05:11:04.160Z,5.40
2019-04-29T05:13:34.510Z,5.40
2019-04-29T05:16:04.804Z,5.50
2019-04-29T05:18:35.340Z,5.50
2019-04-29T05:21:05.645Z,5.50
2019-04-29T05:23:35.978Z,5.50
2019-04-29T05:26:06.354Z,5.60
2019-04-29T05:28:36.748Z,5.60
2019-04-29T05:31:07.169Z,5.70
2019-04-29T05:33:37.505Z,5.70
2019-04-29T05:36:25.274Z,5.80
2019-04-29T05:39:00.138Z,5.80
2019-04-29T05:41:34.772Z,5.90
2019-04-29T05:44:40.053Z,6.00
2019-04-29T05:47:38.226Z,6.10
2019-04-29T05:50:31.316Z,6.30
2019-04-29T05:53:11.405Z,6.60
2019-04-29T05:55:40.723Z,6.80
2019-04-29T05:58:13.801Z,7.00
2019-04-29T06:00:51.081Z,7.30
2019-04-29T06:03:21.389Z,7.40
2019-04-29T06:05:51.693Z,7.70
2019-04-29T06:08:22.224Z,7.90
2019-04-29T06:10:52.532Z,8.10
2019-04-29T06:13:22.904Z,8.30
2019-04-29T06:15:53.303Z,8.50
2019-04-29T06:18:23.834Z,8.80
2019-04-29T06:21:07.957Z,8.90
2019-04-29T06:23:26.411Z,9.10
2019-04-29T06:25:56.798Z,9.20
2019-04-29T06:28:28.168Z,9.20
2019-04-29T06:30:59.019Z,9.10
2019-04-29T06:33:30.989Z,9.00
2019-04-29T06:36:01.456Z,8.90
2019-04-29T06:38:31.795Z,8.90
2019-04-29T06:41:05.445Z,8.80
2019-04-29T06:43:34.319Z,8.80
2019-04-29T06:46:04.676Z,8.70
2019-04-29T06:48:35.020Z,8.70
2019-04-29T06:51:05.341Z,8.70
2019-04-29T06:53:35.683Z,8.70
2019-04-29T06:56:09.047Z,8.70
2019-04-29T06:58:38.450Z,8.70
2019-04-29T07:01:08.976Z,8.70
2019-04-29T07:03:39.285Z,8.70
2019-04-29T07:06:09.724Z,8.80
2019-04-29T07:08:40.065Z,8.80
2019-04-29T07:11:10.420Z,8.90
2019-04-29T07:13:40.783Z,8.90
2019-04-29T07:16:11.167Z,9.00
2019-04-29T07:18:48.179Z,9.00
2019-04-29T07:21:13.531Z,9.10
2019-04-29T07:23:43.885Z,9.20
2019-04-29T07:26:14.241Z,9.20
2019-04-29T07:28:48.622Z,9.20
2019-04-29T07:31:16.710Z,9.20
2019-04-29T07:33:47.062Z,9.30
2019-04-29T07:36:18.697Z,9.40
2019-04-29T07:38:51.684Z,9.40
2019-04-29T07:41:21.600Z,9.50
2019-04-29T07:43:51.998Z,9.50
2019-04-29T07:46:36.402Z,9.60
2019-04-29T07:49:05.599Z,9.60
2019-04-29T07:51:39.436Z,9.70
2019-04-29T07:54:11.003Z,9.80
2019-04-29T07:56:42.458Z,9.80
2019-04-29T07:59:11.483Z,9.90
2019-04-29T08:01:41.769Z,9.90
2019-04-29T08:04:12.145Z,10.00
2019-04-29T08:06:44.773Z,10.10
2019-04-29T08:09:15.401Z,10.10
2019-04-29T08:11:45.852Z,10.20
2019-04-29T08:14:17.630Z,10.30
2019-04-29T08:16:47.971Z,10.40
2019-04-29T08:19:18.312Z,10.50
2019-04-29T08:21:49.718Z,10.70
2019-04-29T08:24:20.704Z,10.80
2019-04-29T08:26:51.083Z,10.90
2019-04-29T08:29:21.429Z,11.00
2019-04-29T08:31:56.375Z,11.10
2019-04-29T08:34:24.389Z,11.20
2019-04-29T08:36:55.139Z,11.30
2019-04-29T08:39:29.516Z,11.40
2019-04-29T08:42:03.743Z,11.40
2019-04-29T08:44:59.774Z,11.50
2019-04-29T08:47:31.827Z,11.60
2019-04-29T08:50:02.341Z,11.70
2019-04-29T08:52:32.692Z,12.00
2019-04-29T08:55:03.069Z,12.60
2019-04-29T08:57:36.515Z,13.30
2019-04-29T09:00:07.360Z,13.70
2019-04-29T09:02:41.296Z,13.80
2019-04-29T09:05:11.423Z,14.00
2019-04-29T09:07:42.491Z,14.50
2019-04-29T09:10:13.318Z,14.80
2019-04-29T09:12:43.656Z,15.30
2019-04-29T09:15:14.527Z,15.60
2019-04-29T09:17:44.845Z,15.90
2019-04-29T09:20:17.086Z,15.70
2019-04-29T09:22:52.848Z,15.40
2019-04-29T09:26:01.572Z,15.10
2019-04-29T09:28:27.208Z,15.00
2019-04-29T09:30:52.421Z,15.50
2019-04-29T09:33:22.767Z,16.00
2019-04-29T09:35:53.111Z,16.40
2019-04-29T09:38:23.496Z,16.80
2019-04-29T09:41:06.491Z,17.00
2019-04-29T09:43:42.721Z,17.30
2019-04-29T09:46:18.643Z,17.50
2019-04-29T09:48:49.352Z,17.40
2019-04-29T09:51:22.888Z,17.30
2019-04-29T09:53:51.970Z,17.20
2019-04-29T09:56:22.301Z,16.80
2019-04-29T09:59:11.568Z,16.40
2019-04-29T10:01:58.132Z,16.10
2019-04-29T10:04:34.650Z,15.80
2019-04-29T10:07:04.996Z,15.60
2019-04-29T10:09:35.315Z,15.70
2019-04-29T10:12:05.797Z,16.20
2019-04-29T10:14:36.647Z,16.70
2019-04-29T10:17:24.811Z,16.90
2019-04-29T10:20:09.135Z,16.70
2019-04-29T10:22:39.709Z,16.30
2019-04-29T10:25:10.419Z,15.80
2019-04-29T10:27:40.796Z,15.50
2019-04-29T10:30:11.730Z,15.30
2019-04-29T10:32:43.574Z,15.40
2019-04-29T10:35:14.499Z,15.60
2019-04-29T10:37:44.934Z,15.60
2019-04-29T10:40:41.573Z,15.60
2019-04-29T10:43:21.216Z,16.10
2019-04-29T10:46:10.511Z,16.80
2019-04-29T10:48:47.044Z,17.50
2019-04-29T10:51:17.393Z,18.20
2019-04-29T10:53:51.036Z,18.50
2019-04-29T10:56:19.992Z,18.70
2019-04-29T10:58:50.349Z,19.10
2019-04-29T11:02:21.531Z,19.70
2019-04-29T11:04:54.032Z,20.00
2019-04-29T11:07:30.972Z,20.50
2019-04-29T11:10:08.131Z,20.80
2019-04-29T11:12:38.516Z,20.60
2019-04-29T11:15:09.852Z,20.60
2019-04-29T11:17:44.554Z,20.80
2019-04-29T11:20:15.771Z,21.00
2019-04-29T11:22:52.195Z,21.40
2019-04-29T11:25:41.547Z,21.70
2019-04-29T11:28:16.035Z,21.70
2019-04-29T11:30:44.132Z,21.90
2019-04-29T11:33:22.743Z,21.90
2019-04-29T11:36:05.497Z,21.30
2019-04-29T11:38:38.385Z,20.70
2019-04-29T11:41:07.919Z,20.50
2019-04-29T11:43:39.909Z,20.80
2019-04-29T11:46:14.407Z,21.10
2019-04-29T11:48:42.445Z,21.20
2019-04-29T11:51:34.254Z,21.00
2019-04-29T11:54:03.123Z,20.40
2019-04-29T11:56:33.477Z,19.60
2019-04-29T11:59:18.935Z,18.90
2019-04-29T12:02:10.956Z,18.00
2019-04-29T12:04:45.273Z,17.40
2019-04-29T12:07:15.701Z,17.00
2019-04-29T12:09:46.413Z,16.70
2019-04-29T12:12:17.020Z,16.60
2019-04-29T12:15:04.766Z,16.50
2019-04-29T12:18:09.303Z,16.50
2019-04-29T12:20:50.916Z,16.50
2019-04-29T12:23:21.314Z,16.70
2019-04-29T12:25:51.638Z,16.70
2019-04-29T12:28:21.968Z,16.70
2019-04-29T12:30:54.006Z,16.90
2019-04-29T12:33:36.741Z,17.30
2019-04-29T12:36:07.694Z,17.50
2019-04-29T12:38:55.370Z,17.60
2019-04-29T12:41:49.201Z,18.20
2019-04-29T12:44:20.011Z,18.90
2019-04-29T12:46:57.327Z,19.40
2019-04-29T12:49:27.649Z,20.00
2019-04-29T12:51:58.042Z,20.30
2019-04-29T12:54:28.400Z,20.40
2019-04-29T12:56:58.721Z,20.50
2019-04-29T12:59:30.584Z,20.40
2019-04-29T13:02:29.120Z,19.90
2019-04-29T13:05:14.628Z,19.30
2019-04-29T13:07:56.117Z,19.10
2019-04-29T13:10:44.307Z,19.20
2019-04-29T13:13:15.706Z,19.40
2019-04-29T13:16:09.028Z,19.50
2019-04-29T13:18:48.929Z,19.40
2019-04-29T13:21:17.935Z,19.30
2019-04-29T13:23:59.477Z,19.60
2019-04-29T13:26:27.753Z,20.10
2019-04-29T13:29:00.141Z,20.20
2019-04-29T13:31:37.525Z,20.00
2019-04-29T13:34:04.761Z,19.20
2019-04-29T13:36:30.842Z,18.60
2019-04-29T13:39:01.794Z,18.30
2019-04-29T13:41:32.214Z,18.50
2019-04-29T13:44:05.711Z,18.90
2019-04-29T13:47:03.395Z,19.20
2019-04-29T13:49:49.090Z,19.40
2019-04-29T13:52:18.730Z,19.80
2019-04-29T13:54:49.166Z,20.30
2019-04-29T13:57:19.506Z,20.10
2019-04-29T14:00:07.503Z,20.00
2019-04-29T14:02:41.944Z,20.10
2019-04-29T14:05:12.412Z,20.10
2019-04-29T14:07:42.727Z,20.10
2019-04-29T14:10:15.023Z,19.80
2019-04-29T14:15:18.050Z,18.60
2019-04-29T14:17:48.367Z,18.50
2019-04-29T14:18:53.614Z,19.20
2019-04-29T14:20:18.769Z,18.80
2019-04-29T14:22:49.473Z,19.00
2019-04-29T14:25:20.190Z,18.90
2019-04-29T14:27:50.546Z,19.00
2019-04-29T14:30:37.352Z,19.10
2019-04-29T14:33:01.749Z,19.30
2019-04-29T14:35:43.675Z,19.20
2019-04-29T14:38:11.813Z,18.90
2019-04-29T14:40:42.748Z,18.70
2019-04-29T14:43:28.764Z,18.60
2019-04-29T14:46:19.224Z,18.70
2019-04-29T14:48:59.468Z,18.70
2019-04-29T14:51:32.694Z,18.60
2019-04-29T14:54:01.275Z,18.10
2019-04-29T14:56:32.022Z,17.80
2019-04-29T14:59:06.895Z,17.60
2019-04-29T15:02:05.758Z,17.40
2019-04-29T15:04:41.798Z,17.30
2019-04-29T15:07:12.188Z,17.10
2019-04-29T15:09:58.686Z,17.20
2019-04-29T15:12:51.819Z,17.50
2019-04-29T15:15:39.037Z,17.70
2019-04-29T15:18:47.365Z,17.90
2019-04-29T15:21:31.416Z,17.80
2019-04-29T15:23:51.944Z,17.80
2019-04-29T15:26:22.253Z,17.60
2019-04-29T15:28:52.564Z,17.60
2019-04-29T15:31:24.561Z,17.60
2019-04-29T15:33:54.994Z,17.70
2019-04-29T15:36:25.440Z,17.70
2019-04-29T15:39:09.000Z,17.40
2019-04-29T15:41:32.737Z,17.20
2019-04-29T15:44:07.868Z,17.30
2019-04-29T15:46:45.529Z,17.20
2019-04-29T15:49:04.612Z,17.20
2019-04-29T15:51:34.944Z,17.20
2019-04-29T15:54:09.151Z,17.10
2019-04-29T15:59:10.334Z,17.10
2019-04-29T16:01:41.779Z,17.10
2019-04-29T16:04:20.851Z,17.00
2019-04-29T16:07:08.796Z,16.90
2019-04-29T16:09:58.044Z,17.00
2019-04-29T16:12:37.109Z,17.00
2019-04-29T16:15:07.473Z,16.80
2019-04-29T16:17:39.328Z,16.60
2019-04-29T16:20:10.126Z,16.20
2019-04-29T16:22:40.461Z,16.10
2019-04-29T16:25:13.973Z,16.00
2019-04-29T16:27:51.525Z,16.00
2019-04-29T16:30:19.031Z,15.90
2019-04-29T16:32:49.640Z,15.80
2019-04-29T16:35:23.772Z,15.90
2019-04-29T16:37:52.081Z,16.00
2019-04-29T16:40:23.459Z,16.10
2019-04-29T16:43:02.422Z,16.00
2019-04-29T16:45:44.291Z,15.90
2019-04-29T16:48:15.210Z,15.90
2019-04-29T16:50:45.538Z,15.80
2019-04-29T16:53:15.950Z,15.60
2019-04-29T16:55:46.282Z,15.60
2019-04-29T16:58:18.373Z,15.50
2019-04-29T17:00:53.040Z,15.50
2019-04-29T17:03:22.391Z,15.30
2019-04-29T17:05:52.743Z,15.30
2019-04-29T17:08:26.597Z,15.30
2019-04-29T17:11:17.452Z,15.20
2019-04-29T17:13:44.666Z,15.00
2019-04-29T17:16:16.919Z,14.90
2019-04-29T17:18:48.172Z,14.90
2019-04-29T17:21:18.543Z,14.90
2019-04-29T17:23:48.868Z,15.00
2019-04-29T17:26:20.867Z,15.00
2019-04-29T17:29:11.821Z,15.00
2019-04-29T17:32:06.159Z,14.90
2019-04-29T17:34:58.036Z,14.80
2019-04-29T17:35:13.770Z,17.10
2019-04-29T17:37:10.539Z,14.80
2019-04-29T17:39:41.112Z,14.80
2019-04-29T17:42:11.838Z,14.80
2019-04-29T17:44:46.073Z,14.80
2019-04-29T17:47:34.106Z,14.80
2019-04-29T17:50:29.397Z,14.60
2019-04-29T17:52:52.183Z,14.40
2019-04-29T17:55:45.324Z,14.20
2019-04-29T17:58:30.257Z,14.00
2019-04-29T18:01:26.017Z,13.90
2019-04-29T18:04:16.658Z,13.80
2019-04-29T18:06:50.707Z,13.70
2019-04-29T18:09:38.027Z,13.70
2019-04-29T18:12:15.592Z,13.60
2019-04-29T18:14:46.026Z,13.70
2019-04-29T18:17:26.505Z,13.70
2019-04-29T18:20:01.664Z,13.70
2019-04-29T18:23:06.169Z,13.60
2019-04-29T18:25:47.794Z,13.50
2019-04-29T18:28:18.157Z,13.50
2019-04-29T18:30:49.781Z,13.50
2019-04-29T18:33:23.093Z,13.40
2019-04-29T18:36:02.082Z,13.50
2019-04-29T18:38:26.407Z,13.40
2019-04-29T18:40:56.861Z,13.40
2019-04-29T18:43:27.259Z,13.40
2019-04-29T18:45:59.185Z,13.40
2019-04-29T18:48:29.838Z,13.40
2019-04-29T18:51:00.191Z,13.50
2019-04-29T18:53:30.581Z,13.40
2019-04-29T18:56:00.925Z,13.40
2019-04-29T18:58:31.249Z,13.40
2019-04-29T19:01:01.672Z,13.40
2019-04-29T19:03:45.820Z,13.30
2019-04-29T19:06:16.582Z,13.20
2019-04-29T19:08:46.896Z,13.00
2019-04-29T19:11:17.257Z,12.90
2019-04-29T19:13:51.892Z,12.80
2019-04-29T19:16:22.063Z,12.70
2019-04-29T19:18:56.962Z,12.60
2019-04-29T19:21:30.517Z,12.50
2019-04-29T19:23:57.344Z,12.40
2019-04-29T19:26:28.416Z,12.30
2019-04-29T19:29:01.225Z,12.30
2019-04-29T19:31:30.872Z,12.20
2019-04-29T19:34:01.374Z,12.10
2019-04-29T19:36:31.874Z,12.00
2019-04-29T19:39:02.235Z,11.90
2019-04-29T19:41:32.540Z,11.80
2019-04-29T19:44:02.855Z,11.80
2019-04-29T19:46:38.332Z,11.80
2019-04-29T19:49:09.690Z,11.70
2019-04-29T19:51:39.335Z,11.70
2019-04-29T19:54:09.363Z,11.80
2019-04-29T19:56:39.768Z,11.80
2019-04-29T19:59:13.280Z,11.80
2019-04-29T20:01:43.661Z,11.60
2019-04-29T20:04:45.558Z,11.60
2019-04-29T20:07:17.609Z,11.50
2019-04-29T20:09:49.543Z,11.50
2019-04-29T20:12:21.196Z,11.40
2019-04-29T20:14:58.691Z,11.30
2019-04-29T20:17:49.171Z,11.30
2019-04-29T20:20:40.719Z,11.20
2019-04-29T20:23:11.315Z,11.20
2019-04-29T20:25:41.790Z,11.30
2019-04-29T20:28:16.995Z,11.30
2019-04-29T20:30:45.686Z,11.30
2019-04-29T20:33:16.581Z,11.30
2019-04-29T20:35:49.008Z,11.20
2019-04-29T20:38:19.342Z,11.20
2019-04-29T20:40:49.858Z,11.10
2019-04-29T20:43:20.851Z,11.00
2019-04-29T20:45:52.397Z,11.00
2019-04-29T20:48:22.849Z,10.90
2019-04-29T20:50:54.678Z,10.90
2019-04-29T20:53:39.795Z,10.80
2019-04-29T20:56:12.293Z,10.80
2019-04-29T20:58:40.524Z,10.80
2019-04-29T21:01:16.527Z,10.70
2019-04-29T21:03:52.109Z,10.70
2019-04-29T21:06:19.308Z,10.70
2019-04-29T21:08:51.098Z,10.70
2019-04-29T21:11:28.602Z,10.60
2019-04-29T21:14:15.694Z,10.70
2019-04-29T21:16:48.041Z,10.70
2019-04-29T21:19:18.364Z,10.70
2019-04-29T21:21:48.688Z,10.70
2019-04-29T21:24:19.029Z,10.60
2019-04-29T21:26:49.372Z,10.60
2019-04-29T21:29:19.692Z,10.60
2019-04-29T21:31:50.751Z,10.60
2019-04-29T21:34:25.526Z,10.60
2019-04-29T21:37:10.693Z,10.50
2019-04-29T21:39:50.374Z,10.60
2019-04-29T21:42:48.862Z,10.60
2019-04-29T21:45:20.037Z,10.60
2019-04-29T21:47:53.348Z,10.60
2019-04-29T21:50:22.488Z,10.60
2019-04-29T21:52:56.984Z,10.60
2019-04-29T21:55:28.065Z,10.60
2019-04-29T21:57:58.843Z,10.60
2019-04-29T22:00:29.790Z,10.60
2019-04-29T22:03:00.179Z,10.60
2019-04-29T22:05:30.545Z,10.60
2019-04-29T22:08:00.880Z,10.60
2019-04-29T22:10:31.259Z,10.60
2019-04-29T22:13:02.355Z,10.50
2019-04-29T22:15:38.198Z,10.50
2019-04-29T22:18:07.317Z,10.40
2019-04-29T22:20:42.341Z,10.30
2019-04-29T22:23:13.446Z,10.30
2019-04-29T22:25:45.282Z,10.30
2019-04-29T22:28:16.016Z,10.30
2019-04-29T22:30:45.420Z,10.20
2019-04-29T22:33:17.536Z,10.30
2019-04-29T22:35:47.845Z,10.30
2019-04-29T22:38:18.772Z,10.20
2019-04-29T22:40:51.182Z,10.30
2019-04-29T22:43:31.473Z,10.20
2019-04-29T22:46:04.825Z,10.20
2019-04-29T22:48:34.891Z,10.20
2019-04-29T22:51:06.048Z,10.20
2019-04-29T22:53:40.003Z,10.10
2019-04-29T22:56:13.957Z,10.10
2019-04-29T22:58:43.950Z,10.10
2019-04-29T23:01:15.573Z,10.00
2019-04-29T23:03:47.121Z,10.00
2019-04-29T23:06:17.848Z,9.90
2019-04-29T23:08:48.150Z,10.00
2019-04-29T23:11:18.446Z,10.00
2019-04-29T23:13:49.076Z,10.00
2019-04-29T23:16:19.760Z,9.90
2019-04-29T23:18:50.084Z,9.90
2019-04-29T23:21:42.892Z,9.90
2019-04-29T23:24:29.202Z,9.90
2019-04-29T23:26:59.519Z,9.90
2019-04-29T23:29:29.827Z,9.90
2019-04-29T23:32:04.715Z,9.90
2019-04-29T23:34:32.219Z,9.90
2019-04-29T23:37:02.519Z,9.80
2019-04-29T23:39:34.717Z,9.80
2019-04-29T23:42:11.994Z,9.80
2019-04-29T23:44:41.847Z,9.80
2019-04-29T23:47:10.264Z,9.80
2019-04-29T23:49:44.155Z,9.70
2019-04-29T23:52:16.034Z,9.80
2019-04-29T23:54:48.512Z,9.80
2019-04-29T23:57:25.503Z,9.80
